Seattle, Washington
Traffic Map
Current Weather Conditions
Seattle, Washington
Scattered Clouds
Scattered Clouds
79°
Feels Like: 80°
Wind Chill: 79° Ceiling: Unl
Heat Index: 80° Visibility: 10mi
Dew Point: 55° Wind: 8mph
Humidity: 44% Direction: 140° (SE)
Pressure: 29.99in Gusts: 0mph
Raw Report DataKBFI 292153Z 14007KT 10SM FEW100 SCT200 26/13 A2999 RMK AO2 SLP153 T02610128 $
Traffic Incident Summary
Active as of:
Severity:
Category:
InformationThere was an issue retrieving the traffic information for this location. Please try a different location or try again shortly.
Advertisements
Track Severe Weather on mobile